Time;durP1;ratioP1;P1;durP2;ratioP2;P2;SDS_P1;SDS_P2;PMS_P1;PMS_P2;Temp;Humidity;BMP_temperature;BMP_pressure;BME280_temperature;BME280_humidity;BME280_pressure;Samples;Min_cycle;Max_cycle;Signal;HPM_P1;HPM_P2
2022/10/04 00:01:26;;;;;;;9.23;4.97;;;4.00;99.90;;;;;;5041490;23;20453;-67
2022/10/04 00:03:31;;;;;;;8.60;4.67;;;4.00;99.90;;;;;;5042274;23;20722;-67
2022/10/04 00:05:32;;;;;;;8.33;4.90;;;4.00;99.90;;;;;;5042529;23;20437;-67
2022/10/04 00:07:39;;;;;;;8.57;5.07;;;4.10;99.90;;;;;;5042260;23;20502;-68
2022/10/04 00:09:45;;;;;;;9.23;5.43;;;4.00;99.90;;;;;;5042322;23;20162;-67
2022/10/04 00:11:47;;;;;;;8.63;5.50;;;4.00;99.90;;;;;;5041495;23;20397;-67
2022/10/04 00:13:57;;;;;;;8.10;5.10;;;4.00;99.90;;;;;;5042649;23;20409;-67
2022/10/04 00:15:57;;;;;;;8.97;5.67;;;4.00;99.90;;;;;;5042752;23;20482;-67
2022/10/04 00:18:01;;;;;;;8.93;5.33;;;4.00;99.90;;;;;;5042158;23;20390;-67
2022/10/04 00:20:23;;;;;;;7.77;5.00;;;3.90;99.90;;;;;;5042236;23;20177;-66
2022/10/04 00:22:31;;;;;;;6.20;4.53;;;3.90;99.90;;;;;;5041969;23;20926;-67
2022/10/04 00:24:34;;;;;;;7.87;5.20;;;3.90;99.90;;;;;;5042272;23;20409;-67
2022/10/04 00:26:35;;;;;;;9.60;5.40;;;4.00;99.90;;;;;;5040493;23;20455;-68
2022/10/04 00:28:35;;;;;;;9.70;4.87;;;4.00;99.90;;;;;;5042234;23;20394;-67
2022/10/04 00:30:37;;;;;;;8.73;5.27;;;4.00;99.90;;;;;;5041306;23;20157;-67
2022/10/04 00:32:40;;;;;;;8.83;4.90;;;3.90;99.90;;;;;;5046058;23;20175;-67
2022/10/04 00:34:49;;;;;;;7.47;5.00;;;3.90;99.90;;;;;;5040592;23;20474;-67
2022/10/04 00:36:52;;;;;;;6.90;4.30;;;3.90;99.90;;;;;;5066474;23;20393;-67
2022/10/04 00:39:08;;;;;;;7.10;4.77;;;3.90;99.90;;;;;;5066822;23;20392;-67
2022/10/04 00:41:12;;;;;;;9.10;4.43;;;3.90;99.90;;;;;;5065521;23;20436;-66
2022/10/04 00:43:23;;;;;;;7.20;5.00;;;3.80;99.90;;;;;;5066385;23;20467;-67
2022/10/04 00:45:29;;;;;;;7.07;4.30;;;3.80;99.90;;;;;;5066815;23;20439;-68
2022/10/04 00:47:45;;;;;;;9.43;5.03;;;3.70;99.90;;;;;;5066754;23;20394;-66
2022/10/04 00:49:50;;;;;;;8.90;4.80;;;3.70;99.90;;;;;;5040680;23;20397;-68
2022/10/04 00:52:01;;;;;;;7.60;3.87;;;3.60;99.90;;;;;;5065735;23;20393;-67
2022/10/04 00:54:11;;;;;;;9.40;4.90;;;3.60;99.90;;;;;;5066776;23;20400;-67
2022/10/04 00:56:28;;;;;;;7.63;4.40;;;3.60;99.90;;;;;;5066412;23;20723;-68
2022/10/04 00:58:35;;;;;;;6.70;4.47;;;3.70;99.90;;;;;;5066427;23;20481;-67
2022/10/04 01:00:36;;;;;;;5.93;4.07;;;3.70;99.90;;;;;;5065243;23;20396;-67
2022/10/04 01:02:45;;;;;;;8.70;4.23;;;3.60;99.90;;;;;;5066084;23;20499;-67
2022/10/04 01:04:53;;;;;;;8.03;4.60;;;3.60;99.90;;;;;;5066038;23;20421;-67
2022/10/04 01:06:58;;;;;;;6.47;4.37;;;3.50;99.90;;;;;;5066072;23;20420;-67
2022/10/04 01:09:07;;;;;;;8.67;5.07;;;3.50;99.90;;;;;;5066107;23;20385;-68
2022/10/04 01:11:18;;;;;;;6.60;4.37;;;3.50;99.90;;;;;;5065163;23;20383;-67
2022/10/04 01:13:39;;;;;;;6.80;4.17;;;3.50;99.90;;;;;;5040553;23;20937;-67
2022/10/04 01:15:42;;;;;;;6.63;4.43;;;3.60;99.90;;;;;;5066538;23;20390;-68
2022/10/04 01:18:28;;;;;;;6.40;4.03;;;3.60;99.90;;;;;;5066294;23;20396;-67
2022/10/04 01:20:39;;;;;;;6.47;4.00;;;3.50;99.90;;;;;;5059571;23;20422;-67
2022/10/04 01:22:43;;;;;;;6.13;4.10;;;3.50;99.90;;;;;;5066125;23;20391;-68
2022/10/04 01:24:44;;;;;;;7.70;4.40;;;3.50;99.90;;;;;;5066283;23;20469;-67
2022/10/04 01:26:45;;;;;;;6.40;4.10;;;3.50;99.90;;;;;;5066051;23;20825;-67
2022/10/04 01:28:46;;;;;;;8.87;4.03;;;3.50;99.90;;;;;;5066193;23;20459;-67
2022/10/04 01:30:46;;;;;;;9.87;4.60;;;3.50;99.90;;;;;;5065086;23;20487;-68
2022/10/04 01:32:47;;;;;;;10.27;4.80;;;3.60;99.90;;;;;;5065983;23;20256;-68
2022/10/04 01:34:47;;;;;;;9.60;5.23;;;3.70;99.90;;;;;;5066209;23;20185;-67
2022/10/04 01:36:51;;;;;;;12.33;6.03;;;3.70;99.90;;;;;;5066293;23;20162;-67
2022/10/04 01:38:52;;;;;;;15.30;5.97;;;3.70;99.90;;;;;;5067935;23;20172;-66
2022/10/04 01:40:59;;;;;;;39.03;7.43;;;3.70;99.90;;;;;;5066759;23;20396;-68
2022/10/04 01:43:11;;;;;;;39.33;7.53;;;3.70;99.90;;;;;;5067540;23;20406;-67
2022/10/04 01:45:34;;;;;;;18.00;6.67;;;3.70;99.90;;;;;;5067794;23;21087;-68
2022/10/04 01:47:47;;;;;;;7.77;5.30;;;3.60;99.90;;;;;;5067488;23;20480;-68
2022/10/04 01:49:49;;;;;;;9.50;5.63;;;3.60;99.90;;;;;;5067502;23;20411;-67
2022/10/04 01:52:13;;;;;;;10.13;6.07;;;3.60;99.90;;;;;;5066672;23;20383;-67
2022/10/04 01:54:22;;;;;;;6.63;4.30;;;3.60;99.90;;;;;;5067295;23;20408;-68
2022/10/04 01:56:31;;;;;;;10.07;4.67;;;3.60;99.90;;;;;;5068110;23;20394;-69
2022/10/04 01:58:45;;;;;;;10.30;5.03;;;3.60;99.90;;;;;;5067999;23;20481;-67
2022/10/04 02:00:59;;;;;;;13.87;5.97;;;3.70;99.90;;;;;;5066611;23;20798;-67
2022/10/04 02:03:03;;;;;;;14.90;6.17;;;3.70;99.90;;;;;;5067646;23;20876;-67
2022/10/04 02:05:09;;;;;;;19.57;6.50;;;3.70;99.90;;;;;;5067763;23;20393;-68
2022/10/04 02:07:14;;;;;;;16.27;5.93;;;3.70;99.90;;;;;;5067426;23;20381;-67
2022/10/04 02:09:21;;;;;;;9.83;5.37;;;3.70;99.90;;;;;;5067478;23;20394;-67
2022/10/04 02:11:26;;;;;;;7.80;4.67;;;3.70;99.90;;;;;;5066725;23;20397;-67
2022/10/04 02:13:37;;;;;;;9.93;5.47;;;3.70;99.90;;;;;;5067096;23;20404;-68
2022/10/04 02:15:40;;;;;;;14.67;5.87;;;3.70;99.90;;;;;;5061856;23;20834;-68
2022/10/04 02:17:42;;;;;;;10.17;5.47;;;3.70;99.90;;;;;;5041241;23;20404;-67
2022/10/04 02:19:43;;;;;;;8.93;5.57;;;3.70;99.90;;;;;;5067292;23;20423;-67
2022/10/04 02:21:46;;;;;;;8.23;4.77;;;3.60;99.90;;;;;;5066145;23;20429;-67
2022/10/04 02:23:48;;;;;;;9.03;5.20;;;3.60;99.90;;;;;;5067170;23;20440;-68
2022/10/04 02:25:48;;;;;;;7.50;4.63;;;3.60;99.90;;;;;;5066585;23;20452;-68
2022/10/04 02:27:52;;;;;;;9.27;5.07;;;3.60;99.90;;;;;;5067016;23;20913;-67
2022/10/04 02:30:09;;;;;;;7.27;4.50;;;3.60;99.90;;;;;;5067355;23;20164;-68
2022/10/04 02:34:33;;;;;;;7.20;3.73;;;3.50;99.90;;;;;;5067196;23;20418;-68
2022/10/04 02:36:34;;;;;;;7.03;4.13;;;3.50;99.90;;;;;;5067084;23;20394;-69
2022/10/04 02:38:42;;;;;;;7.33;4.50;;;3.50;99.90;;;;;;5041328;23;20465;-69
2022/10/04 02:41:04;;;;;;;8.20;4.37;;;3.50;99.90;;;;;;5066775;23;20705;-69
2022/10/04 02:43:19;;;;;;;10.50;4.57;;;3.50;99.90;;;;;;5067417;23;20383;-67
2022/10/04 02:45:42;;;;;;;6.73;4.37;;;3.50;99.90;;;;;;5067288;23;20447;-68
2022/10/04 02:47:51;;;;;;;6.27;3.80;;;3.50;99.90;;;;;;5067140;23;20396;-68
2022/10/04 02:49:57;;;;;;;7.70;4.27;;;3.50;99.90;;;;;;5067320;23;20455;-67
2022/10/04 02:52:24;;;;;;;7.97;4.80;;;3.60;99.90;;;;;;5066433;23;20404;-67
2022/10/04 02:54:43;;;;;;;6.00;3.83;;;3.60;99.90;;;;;;5041228;23;20958;-67
2022/10/04 02:56:43;;;;;;;5.87;3.93;;;3.60;99.90;;;;;;5067289;23;20424;-67
2022/10/04 02:58:45;;;;;;;7.23;4.70;;;3.70;99.90;;;;;;5066965;23;20887;-67
2022/10/04 03:00:54;;;;;;;7.80;5.00;;;3.60;99.90;;;;;;5040493;23;20691;-68
2022/10/04 03:03:15;;;;;;;8.70;4.97;;;3.60;99.90;;;;;;5066926;23;20391;-68
2022/10/04 03:05:16;;;;;;;6.90;4.77;;;3.50;99.90;;;;;;5066501;23;20438;-68
2022/10/04 03:07:18;;;;;;;6.13;3.73;;;3.50;99.90;;;;;;5041280;23;20392;-68
2022/10/04 03:09:21;;;;;;;6.20;3.83;;;3.50;99.90;;;;;;5066839;23;20196;-68
2022/10/04 03:11:26;;;;;;;9.53;5.17;;;3.50;99.90;;;;;;5066190;23;20403;-68
2022/10/04 03:13:27;;;;;;;8.27;4.63;;;3.50;99.90;;;;;;5067043;23;20427;-68
2022/10/04 03:15:28;;;;;;;6.97;4.30;;;3.50;99.90;;;;;;5066802;23;21126;-68
2022/10/04 03:17:29;;;;;;;9.23;4.47;;;3.50;99.90;;;;;;5066847;23;20431;-68
2022/10/04 03:19:32;;;;;;;8.10;4.10;;;3.60;99.90;;;;;;5067063;23;20922;-67
2022/10/04 03:21:34;;;;;;;6.70;4.37;;;3.50;99.90;;;;;;5065990;23;20582;-67
2022/10/04 03:23:36;;;;;;;6.93;4.30;;;3.50;99.90;;;;;;5066971;23;20408;-68
2022/10/04 03:26:13;;;;;;;7.03;3.43;;;3.40;99.90;;;;;;5066877;23;20442;-68
2022/10/04 03:28:13;;;;;;;6.47;3.77;;;3.40;99.90;;;;;;5067186;23;20472;-68
2022/10/04 03:30:15;;;;;;;7.17;4.03;;;3.40;99.90;;;;;;5066121;23;20384;-67
2022/10/04 03:32:18;;;;;;;6.90;3.77;;;3.40;99.90;;;;;;5066683;23;20214;-67
2022/10/04 03:34:30;;;;;;;6.13;3.90;;;3.40;99.90;;;;;;5066685;23;20413;-68
2022/10/04 03:36:33;;;;;;;6.03;4.20;;;3.40;99.90;;;;;;5066979;23;20387;-68
2022/10/04 03:38:35;;;;;;;6.93;3.90;;;3.40;99.90;;;;;;5066839;23;20718;-67
2022/10/04 03:40:37;;;;;;;8.17;4.03;;;3.40;99.90;;;;;;5066116;23;20389;-68
2022/10/04 03:42:39;;;;;;;6.83;4.13;;;3.40;99.90;;;;;;5066810;23;20384;-67
2022/10/04 03:44:40;;;;;;;8.57;4.80;;;3.40;99.90;;;;;;5066870;23;20414;-67
2022/10/04 03:46:42;;;;;;;7.17;4.40;;;3.50;99.90;;;;;;5066429;23;20582;-67
2022/10/04 03:48:49;;;;;;;9.80;4.93;;;3.40;99.90;;;;;;5066740;23;20385;-67
2022/10/04 03:50:51;;;;;;;8.00;4.70;;;3.40;99.90;;;;;;5065956;23;20384;-69
2022/10/04 03:53:03;;;;;;;8.17;4.20;;;3.40;99.90;;;;;;5066400;23;20968;-67
2022/10/04 03:55:06;;;;;;;7.53;5.07;;;3.30;99.90;;;;;;5066934;23;20386;-68
2022/10/04 03:57:08;;;;;;;8.13;3.83;;;3.30;99.90;;;;;;5066852;23;20383;-69
2022/10/04 03:59:16;;;;;;;8.93;5.00;;;3.30;99.90;;;;;;5066476;23;20388;-67
2022/10/04 04:01:43;;;;;;;13.33;8.03;;;3.40;99.90;;;;;;5065622;23;20386;-68
2022/10/04 04:04:10;;;;;;;10.83;7.23;;;3.40;99.90;;;;;;5066712;23;20412;-69
2022/10/04 04:06:16;;;;;;;10.77;7.17;;;3.40;99.90;;;;;;5066571;23;20512;-68
2022/10/04 04:08:32;;;;;;;9.83;6.57;;;3.40;99.90;;;;;;5066355;23;20792;-67
2022/10/04 04:10:37;;;;;;;10.83;6.30;;;3.40;99.90;;;;;;5040249;23;20413;-69
2022/10/04 04:12:42;;;;;;;10.37;6.70;;;3.40;99.90;;;;;;5066451;23;20388;-69
2022/10/04 04:14:45;;;;;;;12.20;8.00;;;3.50;99.90;;;;;;5066237;23;20412;-69
2022/10/04 04:16:46;;;;;;;18.20;11.90;;;3.50;99.90;;;;;;5066348;23;20897;-69
2022/10/04 04:18:49;;;;;;;19.00;12.63;;;3.50;99.90;;;;;;5066488;23;21188;-69
2022/10/04 04:20:52;;;;;;;28.93;19.60;;;3.50;99.90;;;;;;5065603;23;20393;-69
2022/10/04 04:22:58;;;;;;;28.80;19.50;;;3.50;99.90;;;;;;5066501;23;20452;-69
2022/10/04 04:25:07;;;;;;;18.23;13.60;;;3.60;99.90;;;;;;5066670;23;20770;-69
2022/10/04 04:27:09;;;;;;;10.47;7.63;;;3.50;99.90;;;;;;5065741;23;20411;-69
2022/10/04 04:29:09;;;;;;;7.40;4.93;;;3.50;99.90;;;;;;5040207;23;20411;-68
2022/10/04 04:31:44;;;;;;;7.23;5.60;;;3.50;99.90;;;;;;5065418;23;20704;-69
2022/10/04 04:33:52;;;;;;;13.17;8.77;;;3.60;99.90;;;;;;5066567;23;20648;-69
2022/10/04 04:35:55;;;;;;;15.50;8.27;;;3.60;99.90;;;;;;5066227;23;20394;-69
2022/10/04 04:38:05;;;;;;;12.43;8.83;;;3.60;99.90;;;;;;5066367;23;20399;-68
2022/10/04 04:40:18;;;;;;;12.93;7.50;;;3.70;99.90;;;;;;5066418;23;20400;-69
2022/10/04 04:42:33;;;;;;;11.83;6.27;;;3.70;99.90;;;;;;5066307;23;20431;-69
2022/10/04 04:44:37;;;;;;;10.03;5.60;;;3.70;99.90;;;;;;5066221;23;20429;-68
2022/10/04 04:46:38;;;;;;;10.27;5.23;;;3.80;99.90;;;;;;5066041;23;20432;-69
2022/10/04 04:48:42;;;;;;;9.47;5.10;;;3.80;99.90;;;;;;5066357;23;20391;-69
2022/10/04 04:50:52;;;;;;;10.07;5.20;;;3.80;99.90;;;;;;5065413;23;20447;-68
2022/10/04 04:53:14;;;;;;;9.83;5.63;;;3.80;99.90;;;;;;5065987;23;20424;-69
2022/10/04 04:55:27;;;;;;;11.20;5.17;;;3.80;99.90;;;;;;5066657;23;20476;-69
2022/10/04 04:57:28;;;;;;;11.17;5.00;;;3.80;99.90;;;;;;5066583;23;20897;-69
2022/10/04 04:59:28;;;;;;;8.83;5.27;;;3.80;99.90;;;;;;5066400;23;20390;-68
2022/10/04 05:01:44;;;;;;;10.73;5.03;;;3.80;99.90;;;;;;5065603;23;20600;-69
2022/10/04 05:03:58;;;;;;;10.97;5.63;;;3.80;99.90;;;;;;5066259;23;20180;-68
2022/10/04 05:06:03;;;;;;;11.43;5.33;;;3.80;99.90;;;;;;5066161;23;20460;-68
2022/10/04 05:08:25;;;;;;;7.40;5.07;;;3.80;99.90;;;;;;5066371;23;20391;-69
2022/10/04 05:10:33;;;;;;;10.73;5.47;;;3.70;99.90;;;;;;5039666;23;20406;-69
2022/10/04 05:12:33;;;;;;;8.30;4.70;;;3.70;99.90;;;;;;5067986;23;20383;-69
2022/10/04 05:14:38;;;;;;;9.57;5.30;;;3.70;99.90;;;;;;5042925;23;20483;-69
2022/10/04 05:16:48;;;;;;;13.00;6.03;;;3.60;99.90;;;;;;5067771;23;20161;-69
2022/10/04 05:19:20;;;;;;;9.53;4.87;;;3.60;99.90;;;;;;5067577;23;20393;-68
2022/10/04 05:21:29;;;;;;;8.93;5.43;;;3.60;99.90;;;;;;5067178;23;20708;-69
2022/10/04 05:23:31;;;;;;;9.20;5.23;;;3.60;99.90;;;;;;5067680;23;20407;-69
2022/10/04 05:25:32;;;;;;;9.47;4.70;;;3.60;99.90;;;;;;5068019;23;20436;-70
2022/10/04 05:27:38;;;;;;;9.50;5.27;;;3.60;99.90;;;;;;5041965;23;20488;-68
2022/10/04 05:29:56;;;;;;;9.80;5.43;;;3.60;99.90;;;;;;5067741;23;20385;-69
2022/10/04 05:32:02;;;;;;;7.87;4.93;;;3.70;99.90;;;;;;5041148;23;20400;-69
2022/10/04 05:34:16;;;;;;;8.70;4.90;;;3.80;99.90;;;;;;5066951;23;20429;-69
2022/10/04 05:36:23;;;;;;;8.80;4.80;;;3.80;99.90;;;;;;5067517;23;20875;-69
2022/10/04 05:38:38;;;;;;;7.17;5.00;;;3.80;99.90;;;;;;5067499;23;20392;-69
2022/10/04 05:40:47;;;;;;;10.80;6.70;;;3.90;99.90;;;;;;5066588;23;20387;-69
2022/10/04 05:42:50;;;;;;;19.60;8.77;;;3.90;99.90;;;;;;5067587;23;20395;-69
2022/10/04 05:44:55;;;;;;;16.20;7.63;;;3.80;99.90;;;;;;5067643;23;21192;-70
2022/10/04 05:46:59;;;;;;;14.33;8.07;;;3.90;99.90;;;;;;5067624;23;20444;-69
2022/10/04 05:49:10;;;;;;;12.57;7.63;;;3.90;99.90;;;;;;5067455;23;20394;-69
2022/10/04 05:51:25;;;;;;;14.60;7.77;;;3.90;99.90;;;;;;5067056;23;20412;-70
2022/10/04 05:53:30;;;;;;;13.43;7.03;;;3.90;99.90;;;;;;5068659;23;20412;-68
2022/10/04 05:55:41;;;;;;;11.50;7.63;;;4.00;99.90;;;;;;5069374;23;20445;-69
2022/10/04 05:57:44;;;;;;;10.40;6.50;;;4.00;99.90;;;;;;5068514;23;20447;-68
2022/10/04 06:00:09;;;;;;;11.90;7.07;;;4.00;99.90;;;;;;5041866;23;20407;-70
2022/10/04 06:02:28;;;;;;;10.10;6.30;;;4.10;99.90;;;;;;5067657;23;20731;-69
2022/10/04 06:05:02;;;;;;;12.00;6.57;;;4.10;99.90;;;;;;5067675;23;20409;-69
2022/10/04 06:07:36;;;;;;;12.57;6.67;;;4.20;99.90;;;;;;5067846;23;20884;-70
2022/10/04 06:09:49;;;;;;;10.03;6.60;;;4.30;99.90;;;;;;5068780;23;20390;-69
2022/10/04 06:12:32;;;;;;;12.43;7.00;;;4.40;99.90;;;;;;5067337;23;20389;-70
2022/10/04 06:14:50;;;;;;;9.33;6.17;;;4.50;99.90;;;;;;5010530;23;20490;-69
2022/10/04 06:17:00;;;;;;;9.87;6.40;;;4.50;99.90;;;;;;5067493;23;20850;-69
2022/10/04 06:19:12;;;;;;;11.30;5.97;;;4.50;99.90;;;;;;5067558;23;20825;-70
2022/10/04 06:21:18;;;;;;;9.13;5.90;;;4.60;99.90;;;;;;5067047;23;20394;-69
2022/10/04 06:23:20;;;;;;;8.17;5.43;;;4.60;99.90;;;;;;5067057;23;20414;-69
2022/10/04 06:25:38;;;;;;;9.03;4.97;;;4.70;99.90;;;;;;5067551;23;20393;-69
2022/10/04 06:27:47;;;;;;;6.87;4.57;;;4.70;99.90;;;;;;5041511;23;20414;-69
2022/10/04 06:29:57;;;;;;;7.47;5.07;;;4.80;99.90;;;;;;5067526;23;20381;-68
2022/10/04 06:32:10;;;;;;;7.20;4.70;;;4.90;99.90;;;;;;5066608;23;20738;-69
2022/10/04 06:34:20;;;;;;;7.13;4.73;;;4.90;99.90;;;;;;5067515;23;20484;-69
2022/10/04 06:36:39;;;;;;;6.47;4.70;;;5.00;99.90;;;;;;5041786;23;20399;-69
2022/10/04 06:39:06;;;;;;;6.50;4.50;;;5.00;99.90;;;;;;5067231;23;20390;-69
2022/10/04 06:41:19;;;;;;;6.93;4.80;;;5.10;99.90;;;;;;5066441;23;20452;-68
2022/10/04 06:43:33;;;;;;;9.40;5.03;;;5.30;99.90;;;;;;5041639;23;20414;-69
2022/10/04 06:45:42;;;;;;;7.60;4.50;;;5.40;99.90;;;;;;5041420;23;21275;-69
2022/10/04 06:48:10;;;;;;;6.17;4.40;;;5.50;99.90;;;;;;5067130;23;20386;-69
2022/10/04 06:50:32;;;;;;;8.07;4.57;;;5.70;99.90;;;;;;5066627;23;20397;-68
2022/10/04 06:52:36;;;;;;;7.43;4.67;;;5.70;99.90;;;;;;5067302;23;20406;-69
2022/10/04 06:54:55;;;;;;;8.40;4.23;;;5.60;99.90;;;;;;5067189;23;20414;-69
2022/10/04 06:57:14;;;;;;;8.87;4.80;;;5.70;99.90;;;;;;5067120;23;20383;-69
2022/10/04 06:59:35;;;;;;;6.10;3.90;;;5.80;99.90;;;;;;5041414;23;20399;-69
2022/10/04 07:01:52;;;;;;;8.67;4.67;;;5.90;99.90;;;;;;5066332;23;20393;-69
2022/10/04 07:04:08;;;;;;;6.03;4.00;;;6.00;99.90;;;;;;5067421;23;20406;-68
2022/10/04 07:06:10;;;;;;;5.13;3.70;;;6.00;99.90;;;;;;5041058;23;20442;-69
2022/10/04 07:08:29;;;;;;;4.90;3.90;;;6.10;99.90;;;;;;5067229;23;20385;-68
2022/10/04 07:10:39;;;;;;;4.37;3.50;;;6.20;99.90;;;;;;5040463;23;20450;-69
2022/10/04 07:12:43;;;;;;;7.10;3.67;;;6.30;99.90;;;;;;5067234;23;20386;-69
2022/10/04 07:14:49;;;;;;;7.73;4.40;;;6.30;99.90;;;;;;5067119;23;20441;-69
2022/10/04 07:17:00;;;;;;;6.33;4.30;;;6.40;99.90;;;;;;5067171;23;20390;-68
2022/10/04 07:19:16;;;;;;;6.70;4.43;;;6.50;99.90;;;;;;5067209;23;20390;-69
2022/10/04 07:21:17;;;;;;;9.87;6.67;;;6.70;99.90;;;;;;5040434;23;20400;-69
2022/10/04 07:23:27;;;;;;;18.13;9.70;;;6.90;99.90;;;;;;5066816;23;20410;-68
2022/10/04 07:25:42;;;;;;;17.20;9.80;;;7.00;99.90;;;;;;5067027;23;20476;-69
2022/10/04 07:30:17;;;;;;;15.13;8.33;;;7.50;99.90;;;;;;5066331;23;20952;-69
2022/10/04 07:32:25;;;;;;;10.30;7.63;;;7.50;99.90;;;;;;5066974;23;20389;-70
2022/10/04 07:34:29;;;;;;;12.60;7.10;;;7.70;99.90;;;;;;5067265;23;20272;-68
2022/10/04 07:36:49;;;;;;;12.43;6.77;;;7.80;99.90;;;;;;5066803;23;20154;-69
2022/10/04 07:38:58;;;;;;;12.43;6.93;;;8.10;99.90;;;;;;5041038;23;20162;-69
2022/10/04 07:41:22;;;;;;;11.73;6.13;;;8.20;99.90;;;;;;5066054;23;20184;-69
2022/10/04 07:43:28;;;;;;;13.00;6.53;;;8.30;99.90;;;;;;5066659;23;20188;-69
2022/10/04 07:45:32;;;;;;;12.77;6.63;;;8.40;99.90;;;;;;5066595;23;20244;-69
2022/10/04 07:47:33;;;;;;;9.97;6.20;;;8.60;99.90;;;;;;5066733;23;20255;-69
2022/10/04 07:49:39;;;;;;;9.93;6.23;;;8.70;99.90;;;;;;5066489;23;20225;-69
2022/10/04 07:52:07;;;;;;;13.73;6.70;;;8.80;99.90;;;;;;5066066;23;20611;-70
2022/10/04 07:54:32;;;;;;;14.53;8.20;;;8.90;99.90;;;;;;5066324;23;20260;-69
2022/10/04 07:56:36;;;;;;;14.93;8.57;;;8.80;99.90;;;;;;5066699;23;20161;-69
2022/10/04 07:59:04;;;;;;;14.20;8.03;;;8.90;99.90;;;;;;5067057;23;20182;-69
2022/10/04 08:01:32;;;;;;;21.43;10.60;;;9.20;99.90;;;;;;5040217;23;20163;-69
2022/10/04 08:03:47;;;;;;;17.80;9.67;;;9.20;99.90;;;;;;5066602;23;20174;-68
2022/10/04 08:05:58;;;;;;;7.47;6.00;;;9.40;99.90;;;;;;5066666;23;20190;-68
2022/10/04 08:08:05;;;;;;;16.00;7.73;;;9.70;99.90;;;;;;5066819;23;20517;-69
2022/10/04 08:10:22;;;;;;;13.27;6.93;;;10.20;99.90;;;;;;5040759;23;20169;-69
2022/10/04 08:12:52;;;;;;;6.20;4.57;;;10.50;99.90;;;;;;5066915;23;20150;-69
2022/10/04 08:15:02;;;;;;;8.33;4.27;;;10.70;99.90;;;;;;5066358;23;20549;-69
2022/10/04 08:17:19;;;;;;;5.60;3.63;;;10.80;99.90;;;;;;5066319;23;20189;-69
2022/10/04 08:19:38;;;;;;;7.60;3.67;;;11.20;99.90;;;;;;5066552;23;20647;-70
2022/10/04 08:22:04;;;;;;;5.60;3.40;;;11.50;99.90;;;;;;5065671;23;20162;-69
2022/10/04 08:24:31;;;;;;;8.27;3.60;;;11.70;99.90;;;;;;5066280;23;20185;-69
2022/10/04 08:26:55;;;;;;;3.67;3.07;;;11.90;99.90;;;;;;5066405;23;20592;-69
2022/10/04 08:31:56;;;;;;;5.70;3.13;;;12.00;99.90;;;;;;5065734;23;20180;-69
2022/10/04 08:34:10;;;;;;;3.97;2.60;;;12.20;99.90;;;;;;5011626;23;20207;-68
2022/10/04 08:36:36;;;;;;;4.03;2.80;;;12.40;99.90;;;;;;5042321;23;20234;-69
2022/10/04 08:38:49;;;;;;;4.37;2.80;;;12.40;99.90;;;;;;5037807;23;20178;-69
2022/10/04 08:41:27;;;;;;;3.50;2.63;;;12.50;99.20;;;;;;5041682;23;20219;-69
2022/10/04 08:43:48;;;;;;;5.57;2.87;;;12.40;99.90;;;;;;5042268;23;20253;-68
2022/10/04 08:46:14;;;;;;;3.73;2.63;;;12.70;99.90;;;;;;5041687;23;20218;-69
2022/10/04 08:49:02;;;;;;;4.77;2.80;;;12.90;99.70;;;;;;5042117;23;20570;-69
2022/10/04 08:51:37;;;;;;;3.27;2.23;;;12.90;99.50;;;;;;5041645;23;20255;-69
2022/10/04 08:53:47;;;;;;;5.03;2.27;;;13.20;99.90;;;;;;5042402;23;20186;-69
2022/10/04 08:56:19;;;;;;;2.97;2.40;;;13.10;97.80;;;;;;5042182;23;20166;-69
2022/10/04 08:58:25;;;;;;;2.77;2.37;;;13.00;97.70;;;;;;5040483;23;20174;-69
2022/10/04 09:00:55;;;;;;;3.43;2.73;;;12.90;97.90;;;;;;5041358;23;20170;-69
2022/10/04 09:03:25;;;;;;;4.57;2.83;;;13.10;97.30;;;;;;5041932;23;20163;-69
2022/10/04 09:06:06;;;;;;;3.93;2.57;;;13.40;98.70;;;;;;5041930;23;20238;-69
2022/10/04 09:08:25;;;;;;;3.20;2.57;;;13.40;95.80;;;;;;5042142;23;20158;-69
2022/10/04 09:11:04;;;;;;;3.53;2.40;;;13.10;96.90;;;;;;5041123;23;20159;-69
2022/10/04 09:13:33;;;;;;;3.47;2.30;;;13.10;97.20;;;;;;5042239;23;20165;-69
2022/10/04 09:15:52;;;;;;;5.70;2.30;;;13.60;97.10;;;;;;5042102;23;20155;-69
2022/10/04 09:18:24;;;;;;;2.27;2.07;;;14.10;96.20;;;;;;5042224;23;20189;-69
2022/10/04 09:20:58;;;;;;;4.80;2.37;;;14.10;95.50;;;;;;4967646;23;20248;-69
2022/10/04 09:23:19;;;;;;;3.70;2.13;;;14.30;94.00;;;;;;5042153;23;20155;-69
2022/10/04 09:25:41;;;;;;;3.57;2.07;;;14.50;92.50;;;;;;5042050;23;20151;-69
2022/10/04 09:28:32;;;;;;;3.63;2.20;;;14.80;94.10;;;;;;5041782;23;20190;-69
2022/10/04 09:30:56;;;;;;;2.70;2.13;;;15.10;92.80;;;;;;5003591;23;20242;-69
2022/10/04 09:33:00;;;;;;;4.80;2.10;;;15.40;90.80;;;;;;5050096;23;20179;-68
2022/10/04 09:35:19;;;;;;;2.03;1.93;;;15.30;89.10;;;;;;5066449;23;20170;-68
2022/10/04 09:37:35;;;;;;;3.37;2.10;;;15.50;88.40;;;;;;5066708;23;20166;-69
2022/10/04 09:39:38;;;;;;;2.70;2.40;;;15.40;89.80;;;;;;5066296;23;20166;-69
2022/10/04 09:41:43;;;;;;;2.87;2.27;;;15.40;89.80;;;;;;5065605;23;20173;-68
2022/10/04 09:43:56;;;;;;;2.37;2.17;;;15.50;85.90;;;;;;5066048;23;20261;-69
2022/10/04 09:46:36;;;;;;;2.50;1.90;;;15.80;91.00;;;;;;5066087;23;20194;-69
2022/10/04 09:49:17;;;;;;;1.77;1.67;;;16.30;84.80;;;;;;5066311;23;20158;-68
2022/10/04 09:51:53;;;;;;;1.70;1.40;;;16.70;82.30;;;;;;5016107;23;20250;-68
2022/10/04 09:54:15;;;;;;;2.27;1.90;;;17.50;74.00;;;;;;5016774;23;20180;-70
2022/10/04 09:56:31;;;;;;;2.57;1.90;;;18.20;75.30;;;;;;5066251;23;20177;-69
2022/10/04 09:59:06;;;;;;;2.70;1.90;;;18.20;77.30;;;;;;5066729;23;20162;-67
2022/10/04 10:01:28;;;;;;;2.93;1.67;;;18.10;73.00;;;;;;5067348;23;20240;-69
2022/10/04 10:04:10;;;;;;;2.87;2.13;;;17.90;69.00;;;;;;5042379;23;20187;-68
2022/10/04 10:06:39;;;;;;;2.10;1.57;;;18.30;67.90;;;;;;5017368;23;20676;-68
2022/10/04 10:09:05;;;;;;;2.00;1.60;;;17.70;69.10;;;;;;5017285;23;20190;-68
2022/10/04 10:14:00;;;;;;;2.63;1.50;;;17.80;68.20;;;;;;5045714;23;20240;-68
2022/10/04 10:16:39;;;;;;;1.50;1.40;;;18.30;67.00;;;;;;5042099;23;20218;-68
2022/10/04 10:19:15;;;;;;;1.77;1.50;;;18.70;66.50;;;;;;5022960;23;20177;-67
2022/10/04 10:21:36;;;;;;;3.30;1.50;;;20.00;59.80;;;;;;5029096;23;20641;-67
2022/10/04 10:24:24;;;;;;;3.33;1.40;;;20.60;53.10;;;;;;5067837;23;20188;-67
2022/10/04 10:26:30;;;;;;;1.60;1.33;;;20.80;53.50;;;;;;5067421;23;20517;-67
2022/10/04 10:29:15;;;;;;;1.40;1.30;;;20.60;49.80;;;;;;5041948;23;20178;-67
2022/10/04 10:31:58;;;;;;;2.97;1.40;;;20.50;48.30;;;;;;5066561;23;20170;-66
2022/10/04 10:34:44;;;;;;;1.20;1.10;;;20.00;49.30;;;;;;5041417;23;20209;-67
2022/10/04 10:37:35;;;;;;;1.50;1.40;;;20.40;48.40;;;;;;5041741;23;20217;-66
2022/10/04 10:39:49;;;;;;;1.43;1.33;;;20.30;47.80;;;;;;5015134;23;20246;-66
2022/10/04 10:42:16;;;;;;;2.07;1.30;;;19.90;47.60;;;;;;5041191;23;20224;-67
2022/10/04 10:44:46;;;;;;;1.30;1.20;;;20.30;47.60;;;;;;5043119;23;20226;-66
2022/10/04 10:47:14;;;;;;;1.27;1.17;;;20.40;45.50;;;;;;5041955;23;20194;-66
2022/10/04 10:49:51;;;;;;;1.53;1.43;;;20.70;44.70;;;;;;5043668;23;20250;-66
2022/10/04 10:52:27;;;;;;;2.17;1.20;;;20.90;46.00;;;;;;5042642;23;20620;-66
2022/10/04 10:54:58;;;;;;;1.37;1.20;;;21.50;42.30;;;;;;5042974;23;20182;-66
2022/10/04 10:57:10;;;;;;;1.00;1.00;;;22.30;40.70;;;;;;5042101;23;20628;-66
2022/10/04 10:59:34;;;;;;;3.53;1.30;;;22.20;40.70;;;;;;5043445;23;20195;-66
2022/10/04 11:02:03;;;;;;;3.00;1.20;;;22.00;40.50;;;;;;5042530;23;20609;-66
2022/10/04 11:04:34;;;;;;;2.17;1.30;;;22.80;40.70;;;;;;5042973;23;20652;-70
2022/10/04 11:07:22;;;;;;;1.53;1.20;;;23.20;37.40;;;;;;5043208;23;20569;-67
2022/10/04 11:09:37;;;;;;;1.53;1.20;;;22.20;41.50;;;;;;5020411;23;20210;-67
2022/10/04 11:12:33;;;;;;;1.20;1.10;;;22.90;40.80;;;;;;5042454;23;20609;-67
2022/10/04 11:14:59;;;;;;;1.53;1.37;;;23.30;37.10;;;;;;5041917;23;20183;-66
2022/10/04 11:17:22;;;;;;;1.20;1.10;;;24.10;36.50;;;;;;5041572;23;20163;-66
2022/10/04 11:20:04;;;;;;;1.20;1.10;;;22.70;37.50;;;;;;5042929;23;20159;-66
2022/10/04 11:22:43;;;;;;;1.40;1.30;;;23.20;38.30;;;;;;5040967;23;20174;-66
2022/10/04 11:25:06;;;;;;;1.43;1.23;;;25.20;35.30;;;;;;5041791;23;20189;-67
2022/10/04 11:27:30;;;;;;;1.33;1.20;;;24.70;32.50;;;;;;5043245;23;20249;-66
2022/10/04 11:30:14;;;;;;;1.57;1.30;;;24.40;34.40;;;;;;5043009;23;20159;-66
2022/10/04 11:32:35;;;;;;;1.53;1.43;;;24.40;35.30;;;;;;5019006;23;20167;-67
2022/10/04 11:35:01;;;;;;;2.50;1.37;;;24.30;34.80;;;;;;5042669;23;20227;-66
2022/10/04 11:37:30;;;;;;;1.63;1.43;;;25.30;33.80;;;;;;5042874;23;20467;-66
2022/10/04 11:40:06;;;;;;;3.37;1.67;;;26.60;31.70;;;;;;5042858;23;20609;-66
2022/10/04 11:42:27;;;;;;;1.43;1.33;;;25.70;34.30;;;;;;5041715;23;20158;-66
2022/10/04 11:45:05;;;;;;;2.17;1.55;;;25.70;33.40;;;;;;5041050;23;20183;-66
2022/10/04 11:47:20;;;;;;;1.93;1.50;;;25.90;34.20;;;;;;5034503;23;20678;-66
2022/10/04 11:49:55;;;;;;;1.57;1.47;;;25.90;32.60;;;;;;5043299;23;20159;-66
2022/10/04 11:52:35;;;;;;;2.33;1.60;;;24.70;35.40;;;;;;5040588;23;20185;-65
2022/10/04 11:55:31;;;;;;;2.60;1.67;;;24.10;38.50;;;;;;5042612;23;20253;-67